Time;durP1;ratioP1;P1;durP2;ratioP2;P2;SDS_P1;SDS_P2;PMS_P1;PMS_P2;Temp;Humidity;BMP_temperature;BMP_pressure;BME280_temperature;BME280_humidity;BME280_pressure;Samples;Min_cycle;Max_cycle;Signal;HPM_P1;HPM_P2
2022/10/18 00:01:57;;;;;;;39.40;26.35;;;;;;;18.62;70.18;102510.84;4996296;28;20441;-78
2022/10/18 00:04:32;;;;;;;34.40;26.13;;;;;;;18.61;69.64;102514.50;5016336;28;20079;-79
2022/10/18 00:06:59;;;;;;;48.78;27.98;;;;;;;18.58;70.16;102521.00;5032643;28;20434;-78
2022/10/18 00:09:29;;;;;;;40.22;27.83;;;;;;;18.56;69.81;102504.16;5018132;28;20057;-77
2022/10/18 00:11:56;;;;;;;42.50;26.25;;;;;;;18.40;69.85;102482.41;5015053;28;20076;-77
2022/10/18 00:14:23;;;;;;;40.10;26.05;;;;;;;18.42;69.72;102483.09;5016171;28;20053;-78
2022/10/18 00:17:24;;;;;;;38.03;27.02;;;;;;;18.57;70.23;102500.50;5018512;28;20557;-76
2022/10/18 00:20:03;;;;;;;40.97;27.60;;;;;;;18.31;69.94;102454.50;4997394;28;20093;-78
2022/10/18 00:22:30;;;;;;;36.65;26.67;;;;;;;18.59;69.62;102503.03;5015739;28;20089;-78
2022/10/18 00:24:57;;;;;;;41.78;28.17;;;;;;;18.52;69.61;102489.31;5015529;28;20041;-77
2022/10/18 00:27:24;;;;;;;39.63;26.85;;;;;;;18.60;69.48;102501.22;5020755;28;20049;-77
2022/10/18 00:29:52;;;;;;;43.85;28.30;;;;;;;18.57;69.58;102503.19;5023835;28;20057;-80
2022/10/18 00:32:19;;;;;;;39.50;28.23;;;;;;;18.48;69.76;102485.22;5015923;28;20060;-80
2022/10/18 00:34:47;;;;;;;43.42;26.77;;;;;;;18.54;69.90;102500.78;5003798;28;20512;-76
2022/10/18 00:37:20;;;;;;;42.60;26.90;;;;;;;18.47;70.08;102486.22;4995413;28;20149;-78
2022/10/18 00:39:47;;;;;;;42.30;28.42;;;;;;;18.45;70.29;102479.28;4995447;28;20192;-78
2022/10/18 00:42:30;;;;;;;43.05;27.58;;;;;;;18.12;70.01;102425.78;4995594;28;20591;-78
2022/10/18 00:45:14;;;;;;;40.75;27.45;;;;;;;18.43;69.88;102492.88;4994525;28;20249;-78
2022/10/18 00:47:43;;;;;;;41.03;27.75;;;;;;;18.41;70.02;102486.78;4995405;28;20371;-77
2022/10/18 00:50:12;;;;;;;42.30;27.50;;;;;;;18.35;70.39;102481.97;4999110;28;20484;-76
2022/10/18 00:52:51;;;;;;;40.38;26.90;;;;;;;18.30;70.34;102465.41;4999232;28;20195;-76
2022/10/18 00:55:21;;;;;;;41.15;26.85;;;;;;;18.23;70.57;102461.56;4997975;28;20264;-77
2022/10/18 00:57:51;;;;;;;40.30;27.15;;;;;;;18.26;70.21;102469.38;4995100;28;20046;-78
2022/10/18 01:00:18;;;;;;;43.20;26.55;;;;;;;18.17;70.48;102443.34;4995962;28;20057;-77
2022/10/18 01:02:46;;;;;;;45.95;28.45;;;;;;;18.31;70.53;102472.50;4984848;28;20494;-77
2022/10/18 01:05:15;;;;;;;37.22;27.17;;;;;;;18.30;70.57;102476.16;4992601;28;20243;-79
2022/10/18 01:08:05;;;;;;;38.80;26.85;;;;;;;18.09;70.53;102442.22;4997387;28;20393;-78
2022/10/18 01:10:48;;;;;;;49.38;29.20;;;;;;;17.71;70.90;102376.69;4999053;28;20159;-79
2022/10/18 01:14:09;;;;;;;43.47;27.55;;;;;;;18.26;70.86;102464.84;4998237;28;20057;-78
2022/10/18 01:16:56;;;;;;;49.97;28.73;;;;;;;18.13;70.91;102442.75;4960451;28;20077;-79
2022/10/18 01:19:41;;;;;;;39.95;28.17;;;;;;;18.23;70.72;102465.13;4992026;28;20306;-78
2022/10/18 01:22:20;;;;;;;44.42;27.98;;;;;;;18.24;71.17;102455.22;4997371;28;20517;-79
2022/10/18 01:25:02;;;;;;;45.92;28.35;;;;;;;18.23;71.13;102459.75;4997204;28;20186;-79
2022/10/18 01:27:40;;;;;;;42.58;27.30;;;;;;;18.19;71.42;102457.50;4998287;28;20049;-78
2022/10/18 01:30:41;;;;;;;39.67;27.00;;;;;;;18.17;71.54;102456.78;4996412;28;20079;-78
2022/10/18 01:33:14;;;;;;;46.63;28.70;;;;;;;17.94;71.68;102417.59;4997062;28;20057;-78
2022/10/18 01:35:48;;;;;;;47.22;28.65;;;;;;;17.87;71.81;102410.25;5001378;28;20053;-78
2022/10/18 01:38:17;;;;;;;45.53;29.33;;;;;;;17.70;71.84;102379.53;4987289;28;20508;-79
2022/10/18 01:40:48;;;;;;;45.95;28.25;;;;;;;18.03;71.63;102440.06;4982005;28;20135;-78
2022/10/18 01:43:17;;;;;;;45.50;28.80;;;;;;;18.05;71.82;102451.53;4982828;28;20062;-78
2022/10/18 01:45:45;;;;;;;46.15;28.48;;;;;;;17.71;71.80;102392.78;4981746;28;20323;-79
2022/10/18 01:48:16;;;;;;;50.00;29.10;;;;;;;18.05;71.83;102448.00;4981927;28;20376;-79
2022/10/18 01:50:43;;;;;;;50.88;29.25;;;;;;;17.89;71.46;102424.41;4983676;28;20634;-78
2022/10/18 01:53:31;;;;;;;43.47;28.65;;;;;;;17.86;71.64;102424.66;4984221;28;20087;-76
2022/10/18 01:56:01;;;;;;;45.08;28.75;;;;;;;17.61;71.31;102381.19;4981760;28;20426;-77
2022/10/18 01:58:36;;;;;;;47.22;30.35;;;;;;;17.86;71.38;102424.66;4983267;28;20046;-77
2022/10/18 02:01:19;;;;;;;43.42;29.88;;;;;;;17.94;71.58;102443.63;4965855;28;20488;-79
2022/10/18 02:03:53;;;;;;;50.35;29.73;;;;;;;17.99;72.00;102444.06;4983912;28;21394;-76
2022/10/18 02:06:26;;;;;;;46.10;27.50;;;;;;;17.63;72.00;102398.03;4979787;28;20086;-79
2022/10/18 02:09:14;;;;;;;38.70;29.05;;;;;;;17.93;71.95;102447.28;4981176;28;20081;-76
2022/10/18 02:11:43;;;;;;;46.40;29.90;;;;;;;17.90;71.88;102444.88;4985059;28;20778;-79
2022/10/18 02:14:13;;;;;;;49.17;28.58;;;;;;;17.19;72.21;102330.41;4986179;28;20054;-77
2022/10/18 02:16:53;;;;;;;45.05;28.17;;;;;;;17.83;72.18;102441.06;4989805;28;20396;-79
2022/10/18 02:19:37;;;;;;;46.63;29.00;;;;;;;17.59;72.28;102406.50;4989637;28;20145;-80
2022/10/18 02:22:07;;;;;;;45.47;29.27;;;;;;;17.57;72.55;102403.94;4965405;28;20046;-79
2022/10/18 02:24:38;;;;;;;44.25;28.83;;;;;;;17.60;72.11;102418.91;4966837;28;20101;-78
2022/10/18 02:27:07;;;;;;;42.72;29.52;;;;;;;17.71;72.51;102430.38;4962483;28;20062;-76
2022/10/18 02:29:35;;;;;;;44.53;28.52;;;;;;;17.74;72.22;102442.69;4964119;28;20104;-78
2022/10/18 02:32:25;;;;;;;46.95;28.00;;;;;;;17.74;72.15;102437.31;4963284;28;20058;-78
2022/10/18 02:35:15;;;;;;;48.83;29.95;;;;;;;17.54;72.98;102406.91;4987118;28;20920;-79
2022/10/18 02:37:45;;;;;;;42.05;27.83;;;;;;;17.68;72.56;102429.84;4995615;28;20227;-78
2022/10/18 02:40:13;;;;;;;45.80;30.05;;;;;;;17.49;72.71;102399.25;4982828;28;20535;-77
2022/10/18 02:42:53;;;;;;;46.05;29.02;;;;;;;17.73;73.00;102431.09;4982880;28;20149;-78
2022/10/18 02:45:21;;;;;;;42.10;29.52;;;;;;;17.72;72.68;102434.78;4981942;28;20054;-78
2022/10/18 02:47:47;;;;;;;45.60;28.50;;;;;;;17.72;72.97;102434.78;4979832;28;20058;-77
2022/10/18 02:50:14;;;;;;;44.20;28.58;;;;;;;17.68;72.78;102421.78;4980238;28;20050;-79
2022/10/18 02:52:41;;;;;;;47.60;28.70;;;;;;;17.72;72.75;102424.06;4980219;28;20053;-79
2022/10/18 02:55:09;;;;;;;46.20;29.92;;;;;;;17.51;72.87;102399.13;4981025;28;20057;-78
2022/10/18 02:57:36;;;;;;;38.75;27.02;;;;;;;17.56;73.04;102407.63;4984020;28;20505;-75
2022/10/18 03:00:04;;;;;;;48.50;29.30;;;;;;;17.65;73.20;102428.28;4980597;28;20050;-78
2022/10/18 03:02:34;;;;;;;43.95;29.30;;;;;;;17.32;72.99;102378.44;4982760;28;20447;-79
2022/10/18 03:05:04;;;;;;;45.70;30.63;;;;;;;17.62;73.06;102433.06;4994298;28;20049;-77
2022/10/18 03:07:33;;;;;;;45.33;30.00;;;;;;;17.55;73.39;102432.78;5000156;28;20456;-78
2022/10/18 03:10:00;;;;;;;42.13;29.00;;;;;;;17.57;73.40;102430.78;5001822;28;20054;-77
2022/10/18 03:12:27;;;;;;;41.47;28.85;;;;;;;17.57;73.39;102425.41;5000915;28;20067;-78
2022/10/18 03:15:00;;;;;;;42.33;29.10;;;;;;;17.38;73.43;102403.88;5009850;28;20235;-78
2022/10/18 03:17:32;;;;;;;49.15;29.23;;;;;;;17.46;73.34;102412.13;5005425;28;20083;-79
2022/10/18 03:19:59;;;;;;;45.33;29.08;;;;;;;17.55;73.51;102431.91;4999659;28;20499;-78
2022/10/18 03:22:26;;;;;;;45.03;28.75;;;;;;;17.56;73.73;102431.78;4999672;28;20493;-79
2022/10/18 03:24:56;;;;;;;47.60;28.77;;;;;;;17.59;73.54;102434.19;5000972;28;20354;-79
2022/10/18 03:27:23;;;;;;;43.10;28.52;;;;;;;17.61;72.99;102432.22;5004441;28;20056;-78
2022/10/18 03:29:50;;;;;;;49.33;29.95;;;;;;;17.58;72.92;102416.38;5000467;28;20069;-77
2022/10/18 03:32:18;;;;;;;46.17;29.23;;;;;;;17.44;72.67;102392.63;5001454;28;20264;-78
2022/10/18 03:34:45;;;;;;;46.75;28.13;;;;;;;17.60;72.81;102409.03;4987223;28;20108;-78
2022/10/18 03:37:12;;;;;;;47.13;29.38;;;;;;;17.60;72.92;102408.16;4983659;28;20046;-79
2022/10/18 03:39:38;;;;;;;49.50;29.35;;;;;;;17.66;73.06;102429.97;4980171;28;20060;-79
2022/10/18 03:42:05;;;;;;;45.70;28.38;;;;;;;17.60;73.23;102426.97;4979690;28;20049;-80
2022/10/18 03:44:31;;;;;;;44.15;28.83;;;;;;;17.47;73.09;102408.44;4979521;28;20060;-79
2022/10/18 03:46:58;;;;;;;42.88;29.67;;;;;;;17.60;73.40;102430.53;4981407;28;20058;-79
2022/10/18 03:49:25;;;;;;;51.58;29.83;;;;;;;17.60;72.96;102435.03;4981568;28;20555;-76
2022/10/18 03:51:51;;;;;;;45.42;29.70;;;;;;;17.57;73.09;102428.09;4979325;28;20127;-78
2022/10/18 03:54:18;;;;;;;42.50;28.38;;;;;;;17.46;73.50;102407.59;4980818;28;20530;-78
2022/10/18 03:56:45;;;;;;;45.15;29.83;;;;;;;17.48;73.46;102412.84;4981322;28;20427;-78
2022/10/18 03:59:12;;;;;;;46.83;28.98;;;;;;;17.24;73.40;102376.47;4978559;28;20160;-78
2022/10/18 04:01:39;;;;;;;47.67;31.02;;;;;;;17.18;73.63;102382.34;4978533;28;20353;-77
2022/10/18 04:04:05;;;;;;;46.40;29.38;;;;;;;17.13;73.59;102384.59;4994968;28;20153;-78
2022/10/18 04:06:32;;;;;;;45.80;29.08;;;;;;;16.58;73.48;102298.28;5003538;28;20433;-79
2022/10/18 04:08:59;;;;;;;47.55;30.30;;;;;;;17.09;73.96;102375.16;4998895;28;20415;-79
2022/10/18 04:11:25;;;;;;;49.10;31.48;;;;;;;17.12;73.83;102390.97;4997773;28;20487;-77
2022/10/18 04:13:55;;;;;;;51.67;31.08;;;;;;;17.01;73.77;102374.97;4997289;28;20072;-79
2022/10/18 04:16:22;;;;;;;45.72;29.08;;;;;;;17.30;74.09;102428.75;4983126;28;20561;-79
2022/10/18 04:18:48;;;;;;;49.38;30.48;;;;;;;17.30;74.06;102420.69;5000515;28;20045;-78
2022/10/18 04:21:18;;;;;;;49.75;31.40;;;;;;;17.29;74.21;102422.53;4997922;28;20068;-78
2022/10/18 04:23:49;;;;;;;49.53;30.67;;;;;;;17.19;74.37;102402.03;4997146;28;20054;-78
2022/10/18 04:26:16;;;;;;;49.83;30.67;;;;;;;17.09;74.12;102385.88;4998863;28;20083;-78
2022/10/18 04:28:43;;;;;;;46.83;29.77;;;;;;;17.23;74.42;102406.97;5003703;28;20057;-79
2022/10/18 04:31:10;;;;;;;45.90;29.70;;;;;;;16.97;74.35;102360.13;4993956;28;20559;-78
2022/10/18 04:33:40;;;;;;;45.85;30.33;;;;;;;17.00;74.46;102362.53;4981260;28;20139;-78
2022/10/18 04:36:10;;;;;;;45.53;29.20;;;;;;;17.27;74.36;102412.91;4982685;28;20057;-78
2022/10/18 04:38:37;;;;;;;49.50;30.13;;;;;;;17.08;74.41;102376.97;4971678;28;20053;-78
2022/10/18 04:41:04;;;;;;;47.35;30.48;;;;;;;17.25;74.46;102410.34;4996246;28;20208;-78
2022/10/18 04:43:31;;;;;;;49.80;30.25;;;;;;;16.97;74.47;102362.81;4977829;28;20057;-77
2022/10/18 04:45:58;;;;;;;50.33;30.63;;;;;;;17.27;74.34;102408.38;4994706;28;20954;-78
2022/10/18 04:48:25;;;;;;;48.42;31.17;;;;;;;17.04;74.34;102369.34;4992394;28;20302;-79
2022/10/18 04:50:52;;;;;;;46.03;30.13;;;;;;;17.24;74.33;102400.63;4996165;28;20061;-76
2022/10/18 04:53:19;;;;;;;43.03;30.48;;;;;;;17.26;73.86;102409.38;4997076;28;20154;-78
2022/10/18 04:55:49;;;;;;;52.08;31.35;;;;;;;17.00;74.09;102371.44;4993414;28;20084;-79
2022/10/18 04:58:17;;;;;;;49.85;30.00;;;;;;;17.20;74.23;102409.91;4992621;28;20596;-77
2022/10/18 05:00:47;;;;;;;46.05;29.52;;;;;;;17.20;74.14;102404.53;4969548;28;20540;-77
2022/10/18 05:03:17;;;;;;;46.47;30.30;;;;;;;16.98;74.39;102377.94;4957067;28;20535;-78
2022/10/18 05:05:45;;;;;;;55.30;37.15;;;;;;;17.18;74.29;102401.16;4995311;28;20466;-78
2022/10/18 05:08:29;;;;;;;51.38;35.83;;;;;;;17.14;74.50;102391.69;4976250;28;20088;-78
2022/10/18 05:10:56;;;;;;;51.10;32.00;;;;;;;17.14;74.33;102380.97;4979015;28;20050;-78
2022/10/18 05:13:23;;;;;;;52.08;32.55;;;;;;;16.72;74.44;102321.16;4979716;28;20482;-78
2022/10/18 05:15:50;;;;;;;65.60;34.28;;;;;;;16.55;74.28;102294.00;4980782;28;20721;-78
2022/10/18 05:18:19;;;;;;;53.63;32.75;;;;;;;17.20;74.27;102401.88;4979836;28;20128;-79
2022/10/18 05:20:46;;;;;;;51.53;32.20;;;;;;;16.75;74.47;102340.53;4981472;28;20165;-79
2022/10/18 05:23:12;;;;;;;44.90;28.67;;;;;;;17.14;74.79;102406.94;4976579;28;20219;-77
2022/10/18 05:25:42;;;;;;;47.17;30.63;;;;;;;17.13;74.73;102406.06;4976493;28;20060;-78
2022/10/18 05:28:09;;;;;;;47.08;31.17;;;;;;;16.92;74.57;102365.91;4970253;28;20153;-79
2022/10/18 05:30:53;;;;;;;48.17;31.00;;;;;;;17.15;74.75;102398.75;4992867;28;20058;-79
2022/10/18 05:33:19;;;;;;;50.22;30.33;;;;;;;17.16;74.63;102389.72;4979917;28;20046;-79
2022/10/18 05:35:50;;;;;;;46.80;30.77;;;;;;;17.17;74.67;102396.78;4998641;28;20140;-77
2022/10/18 05:38:17;;;;;;;45.13;30.15;;;;;;;17.23;74.62;102398.94;4984565;28;20153;-77
2022/10/18 05:40:44;;;;;;;47.88;30.10;;;;;;;17.01;74.27;102365.06;4978855;28;20050;-77
2022/10/18 05:43:10;;;;;;;44.83;28.90;;;;;;;17.07;74.33;102377.13;4967590;28;20050;-78
2022/10/18 05:45:37;;;;;;;46.17;29.60;;;;;;;17.14;74.27;102386.31;4957491;28;20172;-78
2022/10/18 05:48:06;;;;;;;53.72;32.28;;;;;;;17.21;73.85;102387.47;4957511;28;20674;-82
2022/10/18 05:50:36;;;;;;;44.08;29.15;;;;;;;17.15;74.81;102403.25;4972467;28;20060;-82
2022/10/18 05:53:06;;;;;;;50.13;30.50;;;;;;;17.08;74.70;102411.00;4997868;28;20806;-79
2022/10/18 05:55:43;;;;;;;47.22;30.33;;;;;;;16.98;75.16;102391.34;5000415;28;20929;-81
2022/10/18 05:58:10;;;;;;;43.05;29.70;;;;;;;16.55;75.16;102310.09;5000396;28;20075;-80
2022/10/18 06:00:41;;;;;;;44.08;29.88;;;;;;;17.19;74.87;102408.22;4998525;28;20510;-80
2022/10/18 06:03:09;;;;;;;45.75;28.48;;;;;;;16.94;74.55;102363.91;4987142;28;20068;-80
2022/10/18 06:05:37;;;;;;;44.30;29.67;;;;;;;17.18;74.90;102401.16;4977299;28;20385;-81
2022/10/18 06:08:04;;;;;;;41.95;29.13;;;;;;;17.20;74.46;102401.88;4995759;28;20050;-81
2022/10/18 06:10:39;;;;;;;42.72;28.77;;;;;;;16.58;74.68;102298.28;4975643;28;20957;-80
2022/10/18 06:13:05;;;;;;;44.72;29.42;;;;;;;17.34;74.34;102414.06;4975926;28;20073;-80
2022/10/18 06:15:32;;;;;;;48.53;28.13;;;;;;;17.37;74.38;102412.94;4987262;28;20056;-79
2022/10/18 06:17:59;;;;;;;51.30;30.67;;;;;;;17.39;74.19;102421.72;4977642;28;20390;-80
2022/10/18 06:20:26;;;;;;;45.10;30.20;;;;;;;17.42;74.34;102416.91;4978841;28;20049;-79
2022/10/18 06:22:52;;;;;;;47.28;28.02;;;;;;;17.40;73.65;102405.44;4982469;28;20458;-82
2022/10/18 06:25:21;;;;;;;45.75;29.13;;;;;;;17.35;73.72;102390.75;4981888;28;20050;-80
2022/10/18 06:27:48;;;;;;;50.53;30.05;;;;;;;17.39;73.35;102397.56;5001078;28;20682;-81
2022/10/18 06:30:19;;;;;;;48.05;29.33;;;;;;;17.60;74.05;102418.91;4964844;28;20161;-80
2022/10/18 06:32:52;;;;;;;47.55;29.73;;;;;;;17.08;73.42;102341.25;4977937;28;20578;-79
2022/10/18 06:35:22;;;;;;;41.70;28.77;;;;;;;17.75;72.75;102427.44;4983594;28;20112;-82
2022/10/18 06:37:48;;;;;;;46.42;28.27;;;;;;;17.76;73.45;102435.34;4984644;28;20630;-78
2022/10/18 06:40:15;;;;;;;46.58;28.90;;;;;;;17.64;73.30;102410.44;5006050;28;20073;-80
2022/10/18 06:42:42;;;;;;;46.55;28.70;;;;;;;17.61;73.34;102405.38;4989763;28;20053;-80
2022/10/18 06:45:27;;;;;;;45.70;30.02;;;;;;;17.84;73.65;102437.38;4985207;28;20050;-80
2022/10/18 06:47:54;;;;;;;49.03;29.83;;;;;;;17.86;73.44;102430.03;4980380;28;20069;-81
2022/10/18 06:50:20;;;;;;;49.53;29.08;;;;;;;17.78;73.31;102414.56;4977179;28;20046;-81
2022/10/18 06:52:53;;;;;;;46.53;30.02;;;;;;;17.48;73.21;102368.03;4986519;28;20201;-80
2022/10/18 06:55:20;;;;;;;49.97;30.10;;;;;;;17.93;73.15;102444.59;4987975;28;20050;-85
2022/10/18 06:57:47;;;;;;;44.45;30.70;;;;;;;17.97;72.74;102440.66;4986196;28;20045;-81
2022/10/18 07:00:14;;;;;;;55.55;30.85;;;;;;;18.02;72.80;102440.22;4971180;28;20048;-81
2022/10/18 07:02:41;;;;;;;49.08;30.58;;;;;;;17.97;72.68;102427.22;4972200;28;20297;-81
2022/10/18 07:05:09;;;;;;;46.33;29.90;;;;;;;16.85;72.72;102226.13;4973992;28;20192;-80
2022/10/18 07:07:36;;;;;;;61.33;32.35;;;;;;;18.08;72.36;102429.78;4971720;28;20455;-81
2022/10/18 07:10:04;;;;;;;48.55;30.45;;;;;;;18.19;72.05;102441.38;4981468;28;20042;-81
2022/10/18 07:12:34;;;;;;;48.10;31.45;;;;;;;18.22;72.58;102447.28;4975435;28;20148;-78
2022/10/18 07:15:01;;;;;;;55.13;32.17;;;;;;;18.30;72.78;102449.25;4978321;28;20523;-78
2022/10/18 07:17:34;;;;;;;55.33;32.35;;;;;;;18.27;72.48;102438.81;4978670;28;20060;-82
2022/10/18 07:20:05;;;;;;;47.08;32.13;;;;;;;18.13;71.95;102397.94;4976757;28;20152;-83
2022/10/18 07:22:32;;;;;;;56.80;32.97;;;;;;;18.23;70.80;102406.00;4967261;28;20136;-79
2022/10/18 07:24:59;;;;;;;62.47;34.75;;;;;;;18.66;70.32;102447.66;4984451;28;20065;-81
2022/10/18 07:27:29;;;;;;;49.88;33.05;;;;;;;18.66;69.32;102433.38;4982840;28;20049;-82
2022/10/18 07:30:00;;;;;;;53.78;34.50;;;;;;;18.80;69.24;102451.78;4982084;28;20045;-80
2022/10/18 07:32:27;;;;;;;65.70;39.28;;;;;;;18.75;69.76;102443.28;4978146;28;20124;-81
2022/10/18 07:34:54;;;;;;;56.97;35.13;;;;;;;18.80;70.45;102446.41;4981560;28;20097;-81
2022/10/18 07:37:21;;;;;;;60.97;36.33;;;;;;;18.72;69.66;102425.56;4996970;28;20509;-80
2022/10/18 07:39:55;;;;;;;57.95;36.72;;;;;;;18.90;68.84;102432.91;4958880;28;20471;-81
2022/10/18 07:42:22;;;;;;;61.42;35.63;;;;;;;18.95;68.62;102439.53;4981986;28;20057;-81
2022/10/18 07:44:49;;;;;;;68.22;37.38;;;;;;;19.04;67.87;102431.59;4967312;28;20061;-83
2022/10/18 07:47:20;;;;;;;67.18;38.28;;;;;;;19.24;67.71;102460.13;4981996;28;20170;-81
2022/10/18 07:49:48;;;;;;;65.55;39.58;;;;;;;19.28;67.32;102455.31;4980945;28;20049;-80
2022/10/18 07:52:15;;;;;;;60.67;37.72;;;;;;;19.36;66.71;102453.53;4979551;28;20058;-81
2022/10/18 07:54:43;;;;;;;62.03;38.65;;;;;;;19.29;66.95;102441.69;4978566;28;20072;-83
2022/10/18 07:57:11;;;;;;;67.75;39.15;;;;;;;19.22;66.39;102413.66;4963502;28;20464;-82
2022/10/18 07:59:38;;;;;;;58.22;37.30;;;;;;;19.23;66.50;102411.84;4981099;28;20050;-81
2022/10/18 08:02:05;;;;;;;66.47;37.80;;;;;;;19.44;66.10;102444.72;4981452;28;20068;-82
2022/10/18 08:04:32;;;;;;;64.70;38.55;;;;;;;19.33;66.07;102416.16;4998051;28;20333;-80
2022/10/18 08:07:01;;;;;;;58.10;37.78;;;;;;;19.70;65.46;102469.13;4997562;28;20448;-80
2022/10/18 08:09:28;;;;;;;64.25;37.13;;;;;;;19.66;65.49;102459.66;4999256;28;20046;-84
2022/10/18 08:11:55;;;;;;;64.88;38.83;;;;;;;19.47;65.57;102425.59;4999324;28;20057;-78
2022/10/18 08:14:22;;;;;;;55.33;35.65;;;;;;;19.65;65.81;102464.16;4988454;28;20046;-82
2022/10/18 08:16:49;;;;;;;61.33;36.53;;;;;;;19.63;65.89;102451.84;4960462;28;20281;-80
2022/10/18 08:19:16;;;;;;;58.70;35.60;;;;;;;19.82;65.37;102453.59;4959915;28;20141;-83
2022/10/18 08:21:42;;;;;;;63.10;34.00;;;;;;;19.83;65.55;102453.47;4959840;28;20595;-80
2022/10/18 08:24:12;;;;;;;63.13;34.05;;;;;;;19.41;65.67;102386.63;4960532;28;20074;-82
2022/10/18 08:26:42;;;;;;;56.97;35.80;;;;;;;19.77;65.82;102432.50;4964903;28;20226;-81
2022/10/18 08:29:09;;;;;;;65.00;35.60;;;;;;;19.98;65.75;102467.25;4977880;28;20294;-79
2022/10/18 08:31:49;;;;;;;62.58;38.03;;;;;;;20.06;65.27;102455.69;4977273;28;20365;-81
2022/10/18 08:34:16;;;;;;;62.97;38.13;;;;;;;19.89;65.51;102416.97;4984688;28;20038;-81
2022/10/18 08:36:46;;;;;;;62.40;39.83;;;;;;;19.82;65.07;102405.94;4996970;28;20345;-81
2022/10/18 08:39:13;;;;;;;63.83;38.67;;;;;;;20.22;64.78;102436.09;4994528;28;20049;-83
2022/10/18 08:41:55;;;;;;;62.05;37.30;;;;;;;20.43;64.55;102451.97;4980291;28;20045;-81
2022/10/18 08:44:25;;;;;;;65.53;37.08;;;;;;;20.45;64.53;102455.34;4977883;28;20046;-81
2022/10/18 08:47:03;;;;;;;63.83;37.78;;;;;;;20.35;64.26;102425.78;4978879;28;20155;-80
2022/10/18 08:49:55;;;;;;;63.92;36.30;;;;;;;20.43;63.69;102430.38;4979052;28;20050;-80
2022/10/18 08:52:25;;;;;;;78.30;36.30;;;;;;;20.67;63.89;102438.69;4986532;28;20046;-81
2022/10/18 08:54:56;;;;;;;62.03;36.35;;;;;;;20.95;62.74;102449.34;4986986;28;20586;-79
2022/10/18 08:57:23;;;;;;;;;;;;;;;20.72;62.35;102397.72;4985146;28;20543;-82
2022/10/18 08:59:50;;;;;;;61.47;35.90;;;;;;;20.97;63.09;102444.63;4979545;28;20348;-81
2022/10/18 09:02:49;;;;;;;52.65;33.58;;;;;;;20.55;62.78;102369.81;4967470;28;20376;-81
2022/10/18 09:05:43;;;;;;;55.35;35.80;;;;;;;20.99;62.86;102426.38;4994294;28;20049;-79
2022/10/18 09:08:28;;;;;;;59.15;34.88;;;;;;;21.15;62.69;102444.53;4963919;28;20054;-81
2022/10/18 09:11:06;;;;;;;58.88;37.17;;;;;;;21.28;62.73;102435.97;4969934;28;20042;-81
2022/10/18 09:13:51;;;;;;;53.63;35.40;;;;;;;21.38;62.13;102431.28;4971052;28;20680;-80
2022/10/18 09:16:56;;;;;;;61.75;35.40;;;;;;;21.52;61.99;102427.97;4968195;28;20046;-81
2022/10/18 09:19:42;;;;;;;58.80;31.58;;;;;;;21.68;61.31;102431.75;4971496;28;20672;-80
2022/10/18 09:22:17;;;;;;;55.97;37.15;;;;;;;21.71;61.28;102420.59;4971196;28;20152;-80
2022/10/18 09:25:34;;;;;;;51.58;31.45;;;;;;;21.64;61.09;102388.00;4977944;28;20345;-82
2022/10/18 09:28:23;;;;;;;57.90;35.33;;;;;;;21.05;60.91;102262.91;4966355;28;20291;-82
2022/10/18 09:31:08;;;;;;;53.70;33.83;;;;;;;22.15;59.73;102391.41;4978326;28;20053;-80
2022/10/18 09:33:55;;;;;;;59.13;38.88;;;;;;;22.44;59.18;102416.28;4977048;28;20061;-80
2022/10/18 09:36:25;;;;;;;69.10;40.65;;;;;;;22.50;59.03;102421.00;4976440;28;20060;-79
2022/10/18 09:39:00;;;;;;;63.83;37.05;;;;;;;22.23;58.55;102355.41;4977684;28;20074;-79
2022/10/18 09:41:39;;;;;;;62.28;37.83;;;;;;;22.74;58.07;102417.41;4977671;28;20248;-81
2022/10/18 09:44:16;;;;;;;62.83;37.40;;;;;;;22.69;58.66;102412.50;4978924;28;20054;-80
2022/10/18 09:46:51;;;;;;;70.10;39.25;;;;;;;22.76;58.31;102399.97;4977126;28;20201;-78
2022/10/18 09:49:37;;;;;;;66.13;39.72;;;;;;;22.79;57.52;102394.22;4974355;28;20077;-82
2022/10/18 09:52:08;;;;;;;63.22;39.65;;;;;;;22.84;57.92;102385.53;4996399;28;20151;-81
2022/10/18 09:54:55;;;;;;;71.80;41.60;;;;;;;23.11;56.67;102387.03;4999916;28;20459;-82
2022/10/18 09:57:27;;;;;;;72.45;42.15;;;;;;;23.30;56.49;102401.13;5000962;28;20049;-81
2022/10/18 09:59:56;;;;;;;63.38;41.50;;;;;;;23.06;56.55;102362.34;5004665;28;20323;-81
2022/10/18 10:02:23;;;;;;;66.70;41.90;;;;;;;23.30;56.80;102390.31;4991413;28;20058;-80
2022/10/18 10:04:53;;;;;;;68.15;41.17;;;;;;;23.27;56.69;102363.56;4977862;28;20060;-82
2022/10/18 10:07:33;;;;;;;68.95;39.40;;;;;;;23.59;56.37;102395.91;4987953;28;20046;-82
2022/10/18 10:10:10;;;;;;;67.93;42.45;;;;;;;23.38;55.12;102338.78;5000891;28;20054;-80
2022/10/18 10:12:44;;;;;;;67.13;40.05;;;;;;;23.75;55.33;102372.44;4999776;28;20085;-80
2022/10/18 10:15:24;;;;;;;71.68;41.55;;;;;;;23.58;54.63;102318.31;5016570;28;20057;-80
2022/10/18 10:18:01;;;;;;;70.28;42.65;;;;;;;24.07;54.52;102385.72;5002901;28;20523;-82
2022/10/18 10:20:31;;;;;;;;;;;;;;;24.12;54.70;102384.34;5003532;28;20405;-81
2022/10/18 10:23:15;;;;;;;72.70;43.88;;;;;;;23.97;54.62;102341.75;5003563;28;19932;-81
2022/10/18 10:25:42;;;;;;;73.35;45.72;;;;;;;24.33;53.97;102381.78;4982779;28;20500;-82
2022/10/18 10:28:15;;;;;;;79.43;43.60;;;;;;;24.24;53.21;102343.00;5003120;28;20287;-82
2022/10/18 10:30:42;;;;;;;77.22;46.90;;;;;;;24.46;53.39;102365.72;4978855;28;20089;-81
2022/10/18 10:33:35;;;;;;;74.03;45.10;;;;;;;24.64;52.47;102376.22;4963919;28;20541;-82
2022/10/18 10:36:05;;;;;;;87.88;45.55;;;;;;;24.69;52.82;102365.66;4984106;28;20145;-83
2022/10/18 10:38:33;;;;;;;88.13;48.80;;;;;;;24.42;52.08;102301.09;4989462;28;20760;-83
2022/10/18 10:40:59;;;;;;;86.78;48.20;;;;;;;24.80;51.85;102358.88;5004517;28;20535;-82
2022/10/18 10:43:37;;;;;;;94.47;53.33;;;;;;;24.95;51.46;102358.88;4966874;28;20071;-82
2022/10/18 10:46:17;;;;;;;72.43;41.60;;;;;;;24.85;51.58;102337.44;4960519;28;20061;-82
2022/10/18 10:48:50;;;;;;;82.53;48.45;;;;;;;24.70;51.92;102295.88;4968165;28;20042;-82
2022/10/18 10:51:31;;;;;;;78.65;45.75;;;;;;;25.12;51.66;102351.34;4994561;28;20053;-82
2022/10/18 10:54:13;;;;;;;74.85;41.00;;;;;;;25.20;51.28;102345.00;5001628;28;20634;-84
2022/10/18 10:57:01;;;;;;;84.15;48.60;;;;;;;24.81;50.70;102280.97;4997056;28;20143;-79
2022/10/18 10:59:47;;;;;;;85.30;48.33;;;;;;;24.46;50.59;102235.41;4980364;28;20050;-83
2022/10/18 11:02:17;;;;;;;93.82;50.80;;;;;;;24.98;51.48;102338.63;4993975;28;20046;-83
2022/10/18 11:04:45;;;;;;;85.00;49.95;;;;;;;24.28;51.08;102221.38;4998963;28;20057;-81
2022/10/18 11:07:38;;;;;;;76.82;45.33;;;;;;;24.69;51.19;102315.94;5008611;28;20064;-82
2022/10/18 11:10:10;;;;;;;88.32;47.10;;;;;;;24.61;51.89;102318.72;5013670;28;20146;-83
2022/10/18 11:12:45;;;;;;;;;;;;;;;24.56;51.96;102316.56;5010131;28;20047;-83
2022/10/18 11:15:30;;;;;;;91.65;47.38;;;;;;;24.49;52.41;102316.50;4995498;28;20376;-82
2022/10/18 11:18:13;;;;;;;71.38;41.40;;;;;;;24.12;51.09;102254.13;4984489;28;20046;-82
2022/10/18 11:20:41;;;;;;;82.22;45.72;;;;;;;24.34;52.12;102299.31;4982854;28;20546;-85
2022/10/18 11:23:16;;;;;;;79.68;44.75;;;;;;;24.03;51.59;102240.66;4980914;28;20752;-79
2022/10/18 11:26:10;;;;;;;74.47;43.45;;;;;;;24.29;51.56;102277.34;4986579;28;20564;-83
2022/10/18 11:28:56;;;;;;;89.60;50.17;;;;;;;24.46;52.04;102295.13;5004254;28;20549;-82
2022/10/18 11:32:03;;;;;;;85.85;49.30;;;;;;;23.96;53.05;102246.97;5003346;28;20072;-83
2022/10/18 11:35:26;;;;;;;84.00;47.58;;;;;;;24.06;52.49;102283.69;5001650;28;20045;-85